sensor_id;sensor_type;location;lat;lon;timestamp;pressure;altitude;pressure_sealevel;temperature;humidity
59106;BME280;44891;50.204;8.132;2022-12-26T00:03:08;97881.41;;;10.30;98.08
59106;BME280;44891;50.204;8.132;2022-12-26T00:07:10;97894.53;;;10.30;97.80
59106;BME280;44891;50.204;8.132;2022-12-26T00:11:12;97889.28;;;10.30;98.15
59106;BME280;44891;50.204;8.132;2022-12-26T00:15:15;97865.16;;;10.33;97.47
59106;BME280;44891;50.204;8.132;2022-12-26T00:19:17;97872.00;;;10.34;97.50
59106;BME280;44891;50.204;8.132;2022-12-26T00:23:19;97881.44;;;10.35;97.34
59106;BME280;44891;50.204;8.132;2022-12-26T00:27:21;97884.63;;;10.38;97.25
59106;BME280;44891;50.204;8.132;2022-12-26T00:31:25;97889.28;;;10.30;97.33
59106;BME280;44891;50.204;8.132;2022-12-26T00:35:27;97888.22;;;10.31;97.88
59106;BME280;44891;50.204;8.132;2022-12-26T00:39:29;97890.53;;;10.28;97.56
59106;BME280;44891;50.204;8.132;2022-12-26T00:43:31;97872.41;;;10.26;97.72
59106;BME280;44891;50.204;8.132;2022-12-26T00:47:34;97871.63;;;10.26;97.73
59106;BME280;44891;50.204;8.132;2022-12-26T00:51:36;97874.25;;;10.26;97.95
59106;BME280;44891;50.204;8.132;2022-12-26T00:55:38;97877.47;;;10.33;97.11
59106;BME280;44891;50.204;8.132;2022-12-26T00:59:40;97881.69;;;10.34;96.99
59106;BME280;44891;50.204;8.132;2022-12-26T01:03:43;97884.31;;;10.34;96.86
59106;BME280;44891;50.204;8.132;2022-12-26T01:07:46;97887.66;;;10.29;96.90
59106;BME280;44891;50.204;8.132;2022-12-26T01:11:47;97896.09;;;10.31;96.88
59106;BME280;44891;50.204;8.132;2022-12-26T01:15:50;97867.41;;;10.25;97.01
59106;BME280;44891;50.204;8.132;2022-12-26T01:19:53;97879.66;;;10.19;97.57
59106;BME280;44891;50.204;8.132;2022-12-26T01:23:55;97878.59;;;10.20;97.56
59106;BME280;44891;50.204;8.132;2022-12-26T01:27:57;97878.13;;;10.23;96.75
59106;BME280;44891;50.204;8.132;2022-12-26T01:31:59;97900.75;;;10.24;97.01
59106;BME280;44891;50.204;8.132;2022-12-26T01:36:02;97908.38;;;10.26;96.80
59106;BME280;44891;50.204;8.132;2022-12-26T01:40:05;97918.06;;;10.25;96.80
59106;BME280;44891;50.204;8.132;2022-12-26T01:48:24;97933.16;;;10.18;97.16
59106;BME280;44891;50.204;8.132;2022-12-26T01:52:35;97939.50;;;10.22;97.09
59106;BME280;44891;50.204;8.132;2022-12-26T01:56:39;97947.19;;;10.24;97.08
59106;BME280;44891;50.204;8.132;2022-12-26T02:00:42;97944.56;;;10.24;97.07
59106;BME280;44891;50.204;8.132;2022-12-26T02:04:44;97874.72;;;9.84;97.22
59106;BME280;44891;50.204;8.132;2022-12-26T02:09:14;97925.38;;;10.23;97.37
59106;BME280;44891;50.204;8.132;2022-12-26T02:13:16;97938.28;;;10.25;97.65
59106;BME280;44891;50.204;8.132;2022-12-26T02:17:19;97956.94;;;10.28;97.36
59106;BME280;44891;50.204;8.132;2022-12-26T02:21:28;97954.88;;;10.30;97.61
59106;BME280;44891;50.204;8.132;2022-12-26T02:25:46;97949.63;;;10.30;97.50
59106;BME280;44891;50.204;8.132;2022-12-26T02:30:03;97965.16;;;10.32;97.68
59106;BME280;44891;50.204;8.132;2022-12-26T02:34:10;97956.06;;;10.40;97.51
59106;BME280;44891;50.204;8.132;2022-12-26T02:38:18;97959.00;;;10.43;97.01
59106;BME280;44891;50.204;8.132;2022-12-26T02:42:27;97955.09;;;10.46;96.60
59106;BME280;44891;50.204;8.132;2022-12-26T02:46:34;97956.66;;;10.47;96.80
59106;BME280;44891;50.204;8.132;2022-12-26T02:51:02;97960.09;;;10.47;96.50
59106;BME280;44891;50.204;8.132;2022-12-26T02:55:25;97932.00;;;10.48;96.90
59106;BME280;44891;50.204;8.132;2022-12-26T02:59:47;97944.66;;;10.51;96.58
59106;BME280;44891;50.204;8.132;2022-12-26T03:04:11;97934.44;;;10.54;96.94
59106;BME280;44891;50.204;8.132;2022-12-26T03:08:33;97945.00;;;10.59;96.78
59106;BME280;44891;50.204;8.132;2022-12-26T03:12:56;97955.34;;;10.66;96.74
59106;BME280;44891;50.204;8.132;2022-12-26T03:17:23;97953.91;;;10.80;95.90
59106;BME280;44891;50.204;8.132;2022-12-26T03:21:26;97948.66;;;10.80;95.88
59106;BME280;44891;50.204;8.132;2022-12-26T03:25:41;97948.47;;;10.87;95.45
59106;BME280;44891;50.204;8.132;2022-12-26T03:30:01;97946.69;;;10.93;95.10
59106;BME280;44891;50.204;8.132;2022-12-26T03:34:20;97930.44;;;10.96;94.51
59106;BME280;44891;50.204;8.132;2022-12-26T03:38:23;97907.59;;;10.96;94.74
59106;BME280;44891;50.204;8.132;2022-12-26T03:42:30;97916.28;;;10.97;94.34
59106;BME280;44891;50.204;8.132;2022-12-26T03:46:54;97907.34;;;10.98;94.13
59106;BME280;44891;50.204;8.132;2022-12-26T03:51:20;97891.34;;;10.99;93.56
59106;BME280;44891;50.204;8.132;2022-12-26T03:55:46;97906.56;;;10.97;93.28
59106;BME280;44891;50.204;8.132;2022-12-26T04:00:11;97916.31;;;11.02;93.14
59106;BME280;44891;50.204;8.132;2022-12-26T04:04:33;97910.44;;;10.89;93.46
59106;BME280;44891;50.204;8.132;2022-12-26T04:08:56;97911.94;;;10.85;93.94
59106;BME280;44891;50.204;8.132;2022-12-26T04:13:16;97918.00;;;10.86;93.72
59106;BME280;44891;50.204;8.132;2022-12-26T04:17:41;97933.44;;;10.82;94.08
59106;BME280;44891;50.204;8.132;2022-12-26T04:22:02;97954.25;;;10.89;93.24
59106;BME280;44891;50.204;8.132;2022-12-26T04:26:24;97939.88;;;10.92;93.84
59106;BME280;44891;50.204;8.132;2022-12-26T04:30:48;97955.69;;;10.97;93.30
59106;BME280;44891;50.204;8.132;2022-12-26T04:35:11;97946.75;;;10.98;92.52
59106;BME280;44891;50.204;8.132;2022-12-26T04:39:33;97942.28;;;10.98;91.59
59106;BME280;44891;50.204;8.132;2022-12-26T04:43:53;97941.00;;;11.01;90.95
59106;BME280;44891;50.204;8.132;2022-12-26T04:48:09;97940.72;;;10.97;91.29
59106;BME280;44891;50.204;8.132;2022-12-26T04:52:29;97940.66;;;10.92;91.53
59106;BME280;44891;50.204;8.132;2022-12-26T04:56:45;97935.16;;;10.94;91.61
59106;BME280;44891;50.204;8.132;2022-12-26T05:00:47;97907.53;;;10.91;91.54
59106;BME280;44891;50.204;8.132;2022-12-26T05:04:49;97907.59;;;10.96;90.82
59106;BME280;44891;50.204;8.132;2022-12-26T05:09:10;97906.50;;;10.92;91.42
59106;BME280;44891;50.204;8.132;2022-12-26T05:13:32;97921.41;;;10.86;91.31
59106;BME280;44891;50.204;8.132;2022-12-26T05:17:34;97934.59;;;10.92;90.83
59106;BME280;44891;50.204;8.132;2022-12-26T05:21:53;97947.31;;;11.00;90.40
59106;BME280;44891;50.204;8.132;2022-12-26T05:26:14;97938.88;;;10.98;90.39
59106;BME280;44891;50.204;8.132;2022-12-26T05:30:35;97941.00;;;11.01;90.27
59106;BME280;44891;50.204;8.132;2022-12-26T05:34:37;97954.13;;;11.01;90.27
59106;BME280;44891;50.204;8.132;2022-12-26T05:38:39;97940.81;;;11.07;89.85
59106;BME280;44891;50.204;8.132;2022-12-26T05:42:42;97950.03;;;11.10;89.40
59106;BME280;44891;50.204;8.132;2022-12-26T05:46:44;97954.00;;;11.12;89.31
59106;BME280;44891;50.204;8.132;2022-12-26T05:50:46;97949.00;;;11.11;89.32
59106;BME280;44891;50.204;8.132;2022-12-26T05:54:48;97958.91;;;11.04;90.08
59106;BME280;44891;50.204;8.132;2022-12-26T05:58:54;97969.47;;;11.09;90.55
59106;BME280;44891;50.204;8.132;2022-12-26T06:02:57;97972.66;;;11.11;90.60
59106;BME280;44891;50.204;8.132;2022-12-26T06:06:59;97985.47;;;11.07;91.06
59106;BME280;44891;50.204;8.132;2022-12-26T06:11:02;97969.16;;;11.05;91.35
59106;BME280;44891;50.204;8.132;2022-12-26T06:15:05;97969.97;;;11.06;91.49
59106;BME280;44891;50.204;8.132;2022-12-26T06:19:07;97977.59;;;11.07;91.46
59106;BME280;44891;50.204;8.132;2022-12-26T06:23:09;97983.34;;;11.04;91.51
59106;BME280;44891;50.204;8.132;2022-12-26T06:27:11;97984.22;;;11.10;90.91
59106;BME280;44891;50.204;8.132;2022-12-26T06:31:15;97967.66;;;11.09;90.60
59106;BME280;44891;50.204;8.132;2022-12-26T06:35:17;97950.03;;;11.10;90.36
59106;BME280;44891;50.204;8.132;2022-12-26T06:39:19;97963.41;;;11.08;89.50
59106;BME280;44891;50.204;8.132;2022-12-26T06:43:21;97978.88;;;11.05;90.01
59106;BME280;44891;50.204;8.132;2022-12-26T06:47:24;97973.28;;;10.96;90.50
59106;BME280;44891;50.204;8.132;2022-12-26T06:51:26;97972.78;;;10.99;89.71
59106;BME280;44891;50.204;8.132;2022-12-26T06:55:28;97983.28;;;10.99;89.96
59106;BME280;44891;50.204;8.132;2022-12-26T06:59:30;97993.75;;;10.94;92.09
59106;BME280;44891;50.204;8.132;2022-12-26T07:03:33;98001.34;;;10.91;93.87
59106;BME280;44891;50.204;8.132;2022-12-26T07:07:35;97998.88;;;10.84;95.81
59106;BME280;44891;50.204;8.132;2022-12-26T07:11:38;98004.69;;;10.64;95.92
59106;BME280;44891;50.204;8.132;2022-12-26T07:15:40;98010.50;;;10.49;93.17
59106;BME280;44891;50.204;8.132;2022-12-26T07:19:43;98018.25;;;10.39;94.20
59106;BME280;44891;50.204;8.132;2022-12-26T07:23:45;98029.00;;;10.38;95.41
59106;BME280;44891;50.204;8.132;2022-12-26T07:27:46;98048.25;;;10.26;95.84
59106;BME280;44891;50.204;8.132;2022-12-26T07:31:48;98042.22;;;10.26;98.47
59106;BME280;44891;50.204;8.132;2022-12-26T07:35:52;98040.75;;;10.18;100.00
59106;BME280;44891;50.204;8.132;2022-12-26T07:39:53;98027.16;;;10.21;100.00
59106;BME280;44891;50.204;8.132;2022-12-26T07:43:57;98034.41;;;10.14;100.00
59106;BME280;44891;50.204;8.132;2022-12-26T07:47:59;98048.56;;;10.13;100.00
59106;BME280;44891;50.204;8.132;2022-12-26T07:52:02;98046.25;;;10.00;100.00
59106;BME280;44891;50.204;8.132;2022-12-26T07:56:05;98026.91;;;9.89;100.00
59106;BME280;44891;50.204;8.132;2022-12-26T08:00:07;98027.00;;;9.94;100.00
59106;BME280;44891;50.204;8.132;2022-12-26T08:04:18;98026.75;;;9.79;100.00
59106;BME280;44891;50.204;8.132;2022-12-26T08:08:21;98014.13;;;9.93;100.00
59106;BME280;44891;50.204;8.132;2022-12-26T08:12:23;98005.78;;;10.13;100.00
59106;BME280;44891;50.204;8.132;2022-12-26T08:16:26;97989.38;;;10.22;100.00
59106;BME280;44891;50.204;8.132;2022-12-26T08:20:28;97991.13;;;10.17;100.00
59106;BME280;44891;50.204;8.132;2022-12-26T08:24:31;97990.66;;;10.20;100.00
59106;BME280;44891;50.204;8.132;2022-12-26T08:28:33;97992.00;;;10.22;100.00
59106;BME280;44891;50.204;8.132;2022-12-26T08:32:36;98018.25;;;10.22;100.00
59106;BME280;44891;50.204;8.132;2022-12-26T08:36:38;98035.59;;;10.23;100.00
59106;BME280;44891;50.204;8.132;2022-12-26T08:40:41;98026.59;;;10.19;100.00
59106;BME280;44891;50.204;8.132;2022-12-26T08:44:43;98038.13;;;10.18;100.00
59106;BME280;44891;50.204;8.132;2022-12-26T08:48:45;98049.19;;;10.20;100.00
59106;BME280;44891;50.204;8.132;2022-12-26T08:52:47;98064.59;;;10.17;100.00
59106;BME280;44891;50.204;8.132;2022-12-26T08:56:50;98076.38;;;10.14;100.00
59106;BME280;44891;50.204;8.132;2022-12-26T09:00:52;98088.47;;;10.15;100.00
59106;BME280;44891;50.204;8.132;2022-12-26T09:04:55;98071.13;;;10.14;100.00
59106;BME280;44891;50.204;8.132;2022-12-26T09:08:57;98092.91;;;10.15;100.00
59106;BME280;44891;50.204;8.132;2022-12-26T09:13:01;98115.59;;;10.21;100.00
59106;BME280;44891;50.204;8.132;2022-12-26T09:17:02;98115.81;;;10.19;100.00
59106;BME280;44891;50.204;8.132;2022-12-26T09:21:06;98105.09;;;10.21;100.00
59106;BME280;44891;50.204;8.132;2022-12-26T09:25:08;98109.78;;;10.19;100.00
59106;BME280;44891;50.204;8.132;2022-12-26T09:29:12;98101.94;;;10.35;97.75
59106;BME280;44891;50.204;8.132;2022-12-26T09:33:14;98100.91;;;10.37;97.97
59106;BME280;44891;50.204;8.132;2022-12-26T09:37:16;98095.19;;;10.40;98.76
59106;BME280;44891;50.204;8.132;2022-12-26T09:41:24;98100.50;;;10.45;96.72
59106;BME280;44891;50.204;8.132;2022-12-26T09:45:36;98110.44;;;10.43;98.09
59106;BME280;44891;50.204;8.132;2022-12-26T09:49:46;98125.72;;;10.46;96.25
59106;BME280;44891;50.204;8.132;2022-12-26T09:53:50;98108.78;;;10.53;95.39
59106;BME280;44891;50.204;8.132;2022-12-26T09:57:52;98120.63;;;10.56;95.37
59106;BME280;44891;50.204;8.132;2022-12-26T10:01:57;98138.44;;;10.54;93.91
59106;BME280;44891;50.204;8.132;2022-12-26T10:06:02;98117.53;;;10.59;93.85
59106;BME280;44891;50.204;8.132;2022-12-26T10:10:08;98123.91;;;10.63;93.14
59106;BME280;44891;50.204;8.132;2022-12-26T10:14:12;98109.06;;;10.74;92.92
59106;BME280;44891;50.204;8.132;2022-12-26T10:18:20;98106.44;;;10.74;93.20
59106;BME280;44891;50.204;8.132;2022-12-26T10:22:35;98135.16;;;10.80;93.74
59106;BME280;44891;50.204;8.132;2022-12-26T10:26:41;98139.53;;;10.92;92.41
59106;BME280;44891;50.204;8.132;2022-12-26T10:30:44;98104.72;;;11.01;91.99
59106;BME280;44891;50.204;8.132;2022-12-26T10:34:48;98115.22;;;11.01;91.47
59106;BME280;44891;50.204;8.132;2022-12-26T10:38:51;98134.97;;;11.04;92.40
59106;BME280;44891;50.204;8.132;2022-12-26T10:42:54;98129.72;;;11.04;91.28
59106;BME280;44891;50.204;8.132;2022-12-26T10:51:17;98125.44;;;10.98;90.60
59106;BME280;44891;50.204;8.132;2022-12-26T10:55:20;98127.25;;;10.97;89.41
59106;BME280;44891;50.204;8.132;2022-12-26T10:59:26;98128.22;;;10.91;89.33
59106;BME280;44891;50.204;8.132;2022-12-26T11:03:30;98132.97;;;11.11;88.64
59106;BME280;44891;50.204;8.132;2022-12-26T11:07:33;98137.72;;;11.14;88.01
59106;BME280;44891;50.204;8.132;2022-12-26T11:11:35;98145.25;;;11.27;86.59
59106;BME280;44891;50.204;8.132;2022-12-26T11:15:47;98152.16;;;11.11;86.81
59106;BME280;44891;50.204;8.132;2022-12-26T11:19:49;98158.44;;;11.10;88.22
59106;BME280;44891;50.204;8.132;2022-12-26T11:24:16;98169.06;;;10.99;87.56
59106;BME280;44891;50.204;8.132;2022-12-26T11:28:29;98164.28;;;10.96;88.70
59106;BME280;44891;50.204;8.132;2022-12-26T11:32:31;98162.94;;;10.93;87.47
59106;BME280;44891;50.204;8.132;2022-12-26T11:36:33;98155.66;;;11.00;87.62
59106;BME280;44891;50.204;8.132;2022-12-26T11:40:38;98160.22;;;11.05;87.16
59106;BME280;44891;50.204;8.132;2022-12-26T11:45:09;98152.94;;;11.12;86.36
59106;BME280;44891;50.204;8.132;2022-12-26T11:49:15;98148.22;;;11.14;85.51
59106;BME280;44891;50.204;8.132;2022-12-26T11:53:18;98142.34;;;11.07;86.53
59106;BME280;44891;50.204;8.132;2022-12-26T11:57:26;98144.91;;;11.02;85.58
59106;BME280;44891;50.204;8.132;2022-12-26T12:01:29;98150.75;;;11.04;85.54
59106;BME280;44891;50.204;8.132;2022-12-26T12:05:33;98138.06;;;11.01;85.26
59106;BME280;44891;50.204;8.132;2022-12-26T12:09:42;98122.88;;;11.03;86.25
59106;BME280;44891;50.204;8.132;2022-12-26T12:13:56;98119.22;;;11.04;85.60
59106;BME280;44891;50.204;8.132;2022-12-26T12:18:02;98122.31;;;11.01;85.24
59106;BME280;44891;50.204;8.132;2022-12-26T12:22:26;98132.28;;;10.99;85.80
59106;BME280;44891;50.204;8.132;2022-12-26T12:26:33;98126.69;;;10.95;85.84
59106;BME280;44891;50.204;8.132;2022-12-26T12:30:39;98129.66;;;10.99;86.07
59106;BME280;44891;50.204;8.132;2022-12-26T12:34:58;98137.78;;;10.97;86.57
59106;BME280;44891;50.204;8.132;2022-12-26T12:39:08;98149.97;;;10.86;87.82
59106;BME280;44891;50.204;8.132;2022-12-26T12:43:12;98143.78;;;10.59;91.80
59106;BME280;44891;50.204;8.132;2022-12-26T12:47:20;98137.63;;;10.37;91.31
59106;BME280;44891;50.204;8.132;2022-12-26T12:51:26;98136.31;;;10.34;95.11
59106;BME280;44891;50.204;8.132;2022-12-26T12:55:36;98143.81;;;10.14;97.30
59106;BME280;44891;50.204;8.132;2022-12-26T12:59:42;98140.84;;;10.10;96.25
59106;BME280;44891;50.204;8.132;2022-12-26T13:03:48;98145.44;;;10.03;97.25
59106;BME280;44891;50.204;8.132;2022-12-26T13:07:53;98158.50;;;9.98;100.00
59106;BME280;44891;50.204;8.132;2022-12-26T13:11:59;98150.00;;;10.07;100.00
59106;BME280;44891;50.204;8.132;2022-12-26T13:16:03;98151.19;;;10.00;100.00
59106;BME280;44891;50.204;8.132;2022-12-26T13:20:12;98140.19;;;9.86;100.00
59106;BME280;44891;50.204;8.132;2022-12-26T13:24:16;98134.03;;;9.80;100.00
59106;BME280;44891;50.204;8.132;2022-12-26T13:28:26;98138.81;;;9.84;100.00
59106;BME280;44891;50.204;8.132;2022-12-26T13:32:30;98132.91;;;9.76;96.85
59106;BME280;44891;50.204;8.132;2022-12-26T13:36:34;98134.16;;;9.86;97.14
59106;BME280;44891;50.204;8.132;2022-12-26T13:40:36;98126.59;;;9.89;96.31
59106;BME280;44891;50.204;8.132;2022-12-26T13:44:45;98114.66;;;9.81;98.33
59106;BME280;44891;50.204;8.132;2022-12-26T13:53:01;98119.66;;;9.83;95.35
59106;BME280;44891;50.204;8.132;2022-12-26T13:57:13;98121.28;;;9.84;95.26
59106;BME280;44891;50.204;8.132;2022-12-26T14:01:26;98130.88;;;9.78;94.56
59106;BME280;44891;50.204;8.132;2022-12-26T14:05:31;98128.47;;;9.77;96.45
59106;BME280;44891;50.204;8.132;2022-12-26T14:09:39;98134.75;;;9.76;95.93
59106;BME280;44891;50.204;8.132;2022-12-26T14:13:54;98135.53;;;9.76;96.44
59106;BME280;44891;50.204;8.132;2022-12-26T14:18:04;98132.50;;;9.68;96.49
59106;BME280;44891;50.204;8.132;2022-12-26T14:22:10;98131.47;;;9.69;96.96
59106;BME280;44891;50.204;8.132;2022-12-26T14:26:20;98139.44;;;9.74;96.37
59106;BME280;44891;50.204;8.132;2022-12-26T14:30:27;98138.63;;;9.73;96.34
59106;BME280;44891;50.204;8.132;2022-12-26T14:34:35;98127.59;;;9.71;96.51
59106;BME280;44891;50.204;8.132;2022-12-26T14:38:42;98128.84;;;9.69;96.29
59106;BME280;44891;50.204;8.132;2022-12-26T14:43:07;98139.09;;;9.70;97.57
59106;BME280;44891;50.204;8.132;2022-12-26T14:47:10;98144.56;;;9.69;97.44
59106;BME280;44891;50.204;8.132;2022-12-26T14:51:26;98135.81;;;9.63;98.46
59106;BME280;44891;50.204;8.132;2022-12-26T14:55:46;98141.19;;;9.57;98.36
59106;BME280;44891;50.204;8.132;2022-12-26T15:04:09;98142.88;;;9.63;97.63
59106;BME280;44891;50.204;8.132;2022-12-26T15:12:43;98148.50;;;9.54;98.31
59106;BME280;44891;50.204;8.132;2022-12-26T15:16:56;98145.78;;;9.49;98.28
59106;BME280;44891;50.204;8.132;2022-12-26T15:21:08;98145.31;;;9.52;95.54
59106;BME280;44891;50.204;8.132;2022-12-26T15:25:24;98152.94;;;9.54;94.47
59106;BME280;44891;50.204;8.132;2022-12-26T15:29:37;98150.44;;;9.59;96.07
59106;BME280;44891;50.204;8.132;2022-12-26T15:33:43;98158.19;;;9.54;95.22
59106;BME280;44891;50.204;8.132;2022-12-26T15:38:06;98155.00;;;9.52;94.24
59106;BME280;44891;50.204;8.132;2022-12-26T15:42:18;98153.97;;;9.53;93.49
59106;BME280;44891;50.204;8.132;2022-12-26T15:46:24;98148.63;;;9.48;93.02
59106;BME280;44891;50.204;8.132;2022-12-26T15:50:28;98157.19;;;9.43;92.47
59106;BME280;44891;50.204;8.132;2022-12-26T15:54:42;98150.34;;;9.42;92.75
59106;BME280;44891;50.204;8.132;2022-12-26T15:58:57;98156.06;;;9.39;91.34
59106;BME280;44891;50.204;8.132;2022-12-26T16:03:08;98157.78;;;9.34;91.42
59106;BME280;44891;50.204;8.132;2022-12-26T16:07:20;98179.19;;;9.31;91.40
59106;BME280;44891;50.204;8.132;2022-12-26T16:11:24;98189.13;;;9.29;91.70
59106;BME280;44891;50.204;8.132;2022-12-26T16:15:26;98207.94;;;9.25;92.69
59106;BME280;44891;50.204;8.132;2022-12-26T16:19:30;98225.13;;;9.21;94.51
59106;BME280;44891;50.204;8.132;2022-12-26T16:23:34;98250.75;;;9.08;96.02
59106;BME280;44891;50.204;8.132;2022-12-26T16:27:39;98253.44;;;8.78;95.45
59106;BME280;44891;50.204;8.132;2022-12-26T16:31:41;98216.19;;;8.52;92.76
59106;BME280;44891;50.204;8.132;2022-12-26T16:35:43;98239.31;;;8.55;93.42
59106;BME280;44891;50.204;8.132;2022-12-26T16:39:46;98260.78;;;8.46;95.48
59106;BME280;44891;50.204;8.132;2022-12-26T16:44:26;98251.13;;;8.46;97.21
59106;BME280;44891;50.204;8.132;2022-12-26T16:48:29;98237.91;;;8.41;98.19
59106;BME280;44891;50.204;8.132;2022-12-26T16:52:33;98246.25;;;8.31;96.71
59106;BME280;44891;50.204;8.132;2022-12-26T16:56:35;98225.09;;;8.33;96.76
59106;BME280;44891;50.204;8.132;2022-12-26T17:00:38;98217.69;;;8.30;97.34
59106;BME280;44891;50.204;8.132;2022-12-26T17:04:40;98247.63;;;8.34;98.18
59106;BME280;44891;50.204;8.132;2022-12-26T17:08:49;98245.91;;;8.28;98.55
59106;BME280;44891;50.204;8.132;2022-12-26T17:12:52;98237.16;;;8.34;97.45
59106;BME280;44891;50.204;8.132;2022-12-26T17:16:57;98223.56;;;8.13;99.11
59106;BME280;44891;50.204;8.132;2022-12-26T17:21:13;98231.09;;;8.22;98.33
59106;BME280;44891;50.204;8.132;2022-12-26T17:25:22;98240.06;;;8.14;99.03
59106;BME280;44891;50.204;8.132;2022-12-26T17:29:46;98246.06;;;8.14;100.00
59106;BME280;44891;50.204;8.132;2022-12-26T17:33:49;98241.97;;;8.07;99.72
59106;BME280;44891;50.204;8.132;2022-12-26T17:37:53;98252.84;;;8.04;100.00
59106;BME280;44891;50.204;8.132;2022-12-26T17:41:57;98253.94;;;7.96;100.00
59106;BME280;44891;50.204;8.132;2022-12-26T17:46:00;98275.66;;;7.97;100.00
59106;BME280;44891;50.204;8.132;2022-12-26T17:50:03;98290.22;;;7.93;100.00
59106;BME280;44891;50.204;8.132;2022-12-26T17:54:07;98308.22;;;7.82;100.00
59106;BME280;44891;50.204;8.132;2022-12-26T17:58:09;98311.47;;;7.78;100.00
59106;BME280;44891;50.204;8.132;2022-12-26T18:02:12;98327.59;;;7.75;100.00
59106;BME280;44891;50.204;8.132;2022-12-26T18:06:15;98331.72;;;7.64;100.00
59106;BME280;44891;50.204;8.132;2022-12-26T18:10:19;98342.16;;;7.64;100.00
59106;BME280;44891;50.204;8.132;2022-12-26T18:14:21;98357.75;;;7.52;100.00
59106;BME280;44891;50.204;8.132;2022-12-26T18:18:25;98374.59;;;7.31;100.00
59106;BME280;44891;50.204;8.132;2022-12-26T18:22:30;98381.34;;;7.21;100.00
59106;BME280;44891;50.204;8.132;2022-12-26T18:26:32;98391.31;;;6.99;100.00
59106;BME280;44891;50.204;8.132;2022-12-26T18:30:34;98401.38;;;6.95;100.00
59106;BME280;44891;50.204;8.132;2022-12-26T18:34:36;98416.03;;;6.96;100.00
59106;BME280;44891;50.204;8.132;2022-12-26T18:38:39;98418.47;;;6.91;100.00
59106;BME280;44891;50.204;8.132;2022-12-26T18:42:41;98410.25;;;6.88;100.00
59106;BME280;44891;50.204;8.132;2022-12-26T18:46:43;98417.13;;;6.82;100.00
59106;BME280;44891;50.204;8.132;2022-12-26T18:50:45;98429.16;;;6.83;100.00
59106;BME280;44891;50.204;8.132;2022-12-26T18:54:48;98429.53;;;6.87;100.00
59106;BME280;44891;50.204;8.132;2022-12-26T18:58:50;98434.56;;;6.88;100.00
59106;BME280;44891;50.204;8.132;2022-12-26T19:02:52;98451.00;;;6.95;99.81
59106;BME280;44891;50.204;8.132;2022-12-26T19:06:55;98452.00;;;6.94;98.60
59106;BME280;44891;50.204;8.132;2022-12-26T19:10:58;98459.06;;;6.87;99.07
59106;BME280;44891;50.204;8.132;2022-12-26T19:15:00;98452.69;;;6.70;100.00
59106;BME280;44891;50.204;8.132;2022-12-26T19:19:02;98464.38;;;6.67;100.00
59106;BME280;44891;50.204;8.132;2022-12-26T19:23:04;98474.41;;;6.64;100.00
59106;BME280;44891;50.204;8.132;2022-12-26T19:27:07;98475.38;;;6.69;100.00
59106;BME280;44891;50.204;8.132;2022-12-26T19:31:10;98486.97;;;6.80;98.58
59106;BME280;44891;50.204;8.132;2022-12-26T19:35:12;98488.19;;;6.77;98.85
59106;BME280;44891;50.204;8.132;2022-12-26T19:39:14;98499.47;;;6.71;96.81
59106;BME280;44891;50.204;8.132;2022-12-26T19:43:17;98517.16;;;6.63;99.07
59106;BME280;44891;50.204;8.132;2022-12-26T19:47:19;98526.81;;;6.56;95.13
59106;BME280;44891;50.204;8.132;2022-12-26T19:51:23;98525.44;;;6.33;86.83
59106;BME280;44891;50.204;8.132;2022-12-26T19:55:24;98543.72;;;6.20;88.82
59106;BME280;44891;50.204;8.132;2022-12-26T19:59:28;98543.31;;;6.10;86.53
59106;BME280;44891;50.204;8.132;2022-12-26T20:03:29;98552.53;;;5.92;85.65
59106;BME280;44891;50.204;8.132;2022-12-26T20:07:31;98554.69;;;5.69;84.22
59106;BME280;44891;50.204;8.132;2022-12-26T20:11:34;98563.69;;;5.66;83.50
59106;BME280;44891;50.204;8.132;2022-12-26T20:15:38;98568.09;;;5.66;79.78
59106;BME280;44891;50.204;8.132;2022-12-26T20:19:40;98577.50;;;5.54;79.40
59106;BME280;44891;50.204;8.132;2022-12-26T20:23:43;98594.06;;;5.39;79.73
59106;BME280;44891;50.204;8.132;2022-12-26T20:27:45;98609.72;;;5.39;79.17
59106;BME280;44891;50.204;8.132;2022-12-26T20:31:48;98609.84;;;5.25;79.25
59106;BME280;44891;50.204;8.132;2022-12-26T20:35:58;98628.41;;;5.15;79.33
59106;BME280;44891;50.204;8.132;2022-12-26T20:40:00;98642.84;;;5.11;78.17
59106;BME280;44891;50.204;8.132;2022-12-26T20:44:02;98648.47;;;5.21;75.94
59106;BME280;44891;50.204;8.132;2022-12-26T20:48:05;98664.50;;;5.18;76.46
59106;BME280;44891;50.204;8.132;2022-12-26T20:52:07;98667.34;;;5.23;73.92
59106;BME280;44891;50.204;8.132;2022-12-26T20:56:09;98678.97;;;5.27;74.97
59106;BME280;44891;50.204;8.132;2022-12-26T21:00:11;98680.31;;;5.16;75.76
59106;BME280;44891;50.204;8.132;2022-12-26T21:04:16;98691.84;;;5.07;75.51
59106;BME280;44891;50.204;8.132;2022-12-26T21:08:19;98696.91;;;5.09;74.51
59106;BME280;44891;50.204;8.132;2022-12-26T21:12:21;98714.72;;;5.12;75.03
59106;BME280;44891;50.204;8.132;2022-12-26T21:16:25;98730.75;;;5.09;75.78
59106;BME280;44891;50.204;8.132;2022-12-26T21:20:29;98736.88;;;5.01;77.32
59106;BME280;44891;50.204;8.132;2022-12-26T21:24:31;98744.16;;;4.84;79.55
59106;BME280;44891;50.204;8.132;2022-12-26T21:28:33;98748.66;;;4.69;79.78
59106;BME280;44891;50.204;8.132;2022-12-26T21:32:35;98728.31;;;4.58;79.42
59106;BME280;44891;50.204;8.132;2022-12-26T21:36:38;98766.66;;;4.71;76.97
59106;BME280;44891;50.204;8.132;2022-12-26T21:40:41;98771.03;;;4.49;78.35
59106;BME280;44891;50.204;8.132;2022-12-26T21:44:43;98784.88;;;4.49;76.56
59106;BME280;44891;50.204;8.132;2022-12-26T21:48:45;98787.47;;;4.49;74.54
59106;BME280;44891;50.204;8.132;2022-12-26T21:52:48;98791.50;;;4.52;73.52
59106;BME280;44891;50.204;8.132;2022-12-26T21:56:50;98792.84;;;4.48;72.26
59106;BME280;44891;50.204;8.132;2022-12-26T22:00:52;98800.75;;;4.40;72.24
59106;BME280;44891;50.204;8.132;2022-12-26T22:04:54;98815.69;;;4.31;72.66
59106;BME280;44891;50.204;8.132;2022-12-26T22:08:56;98818.91;;;4.33;72.74
59106;BME280;44891;50.204;8.132;2022-12-26T22:12:58;98833.88;;;4.31;73.54